Time;durP1;ratioP1;P1;durP2;ratioP2;P2;SDS_P1;SDS_P2;PMS_P1;PMS_P2;Temp;Humidity;BMP_temperature;BMP_pressure;BME280_temperature;BME280_humidity;BME280_pressure;Samples;Min_cycle;Max_cycle;Signal;HPM_P1;HPM_P2
2023/03/02 00:00:24;;;;;;;132.93;55.47;;;;;;;-3.94;100.00;101382.84;4975153;28;20022;-75
2023/03/02 00:02:50;;;;;;;147.48;57.72;;;;;;;-3.94;100.00;101387.63;4973839;28;20123;-75
2023/03/02 00:05:15;;;;;;;156.38;56.53;;;;;;;-3.97;100.00;101385.56;4973794;28;20069;-75
2023/03/02 00:07:41;;;;;;;149.20;60.40;;;;;;;-3.98;100.00;101376.41;4973592;28;20058;-76
2023/03/02 00:10:07;;;;;;;152.80;59.00;;;;;;;-4.01;100.00;101379.09;4973390;28;20110;-75
2023/03/02 00:12:33;;;;;;;150.95;58.03;;;;;;;-3.95;100.00;101388.78;4974380;28;20038;-75
2023/03/02 00:14:59;;;;;;;157.57;61.90;;;;;;;-3.97;100.00;101389.16;4972361;28;20046;-76
2023/03/02 00:17:26;;;;;;;162.70;62.90;;;;;;;-4.01;100.00;101388.28;4972871;28;20029;-75
2023/03/02 00:20:10;;;;;;;180.02;66.72;;;;;;;-4.07;100.00;101389.75;4971296;28;20030;-74
2023/03/02 00:22:39;;;;;;;164.15;63.13;;;;;;;-4.12;100.00;101389.25;4972434;28;20019;-74
2023/03/02 00:25:06;;;;;;;153.75;64.45;;;;;;;-4.23;100.00;101375.88;4971184;28;20420;-74
2023/03/02 00:27:31;;;;;;;181.40;68.85;;;;;;;-4.20;100.00;101383.50;4971294;28;20018;-74
2023/03/02 00:29:57;;;;;;;174.13;66.93;;;;;;;-4.20;100.00;101386.28;4971205;28;20031;-75
2023/03/02 00:32:22;;;;;;;164.55;61.95;;;;;;;-4.20;100.00;101369.56;4974622;28;20350;-76
2023/03/02 00:34:48;;;;;;;170.85;66.35;;;;;;;-4.19;100.00;101373.16;4955196;28;20042;-75
2023/03/02 00:37:14;;;;;;;163.23;63.05;;;;;;;-4.19;100.00;101378.72;4970901;28;20042;-76
2023/03/02 00:39:39;;;;;;;159.85;68.13;;;;;;;-4.18;100.00;101380.34;4971071;28;20026;-75
2023/03/02 00:42:04;;;;;;;174.57;68.05;;;;;;;-4.18;100.00;101383.16;4972108;28;20026;-76
2023/03/02 00:44:30;;;;;;;166.55;67.25;;;;;;;-4.19;100.00;101375.94;4972400;28;20037;-74
2023/03/02 00:46:55;;;;;;;154.35;63.55;;;;;;;-4.20;100.00;101369.56;4971254;28;20102;-76
2023/03/02 00:49:21;;;;;;;149.93;62.70;;;;;;;-4.13;100.00;101376.47;4972173;28;20054;-75
2023/03/02 00:51:46;;;;;;;157.13;61.83;;;;;;;-4.13;100.00;101380.06;4974070;28;20129;-74
2023/03/02 00:54:12;;;;;;;145.27;60.00;;;;;;;-4.15;100.00;101367.66;4973964;28;20033;-76
2023/03/02 00:56:37;;;;;;;141.48;56.67;;;;;;;-4.15;100.00;101365.66;4973072;28;20528;-77
2023/03/02 00:59:25;;;;;;;135.95;54.55;;;;;;;-4.14;100.00;101366.47;4974180;28;20034;-76
2023/03/02 01:01:57;;;;;;;151.57;57.35;;;;;;;-4.19;100.00;101368.38;4974534;28;20049;-76
2023/03/02 01:04:29;;;;;;;137.48;56.92;;;;;;;-4.19;100.00;101370.38;4974015;28;20035;-75
2023/03/02 01:06:57;;;;;;;162.95;59.70;;;;;;;-4.20;100.00;101360.38;4974161;28;20047;-75
2023/03/02 01:09:22;;;;;;;125.90;52.78;;;;;;;-4.22;100.00;101349.56;4972932;28;20464;-76
2023/03/02 01:11:47;;;;;;;144.68;57.83;;;;;;;-4.24;100.00;101351.94;4973589;28;20038;-75
2023/03/02 01:14:13;;;;;;;141.40;58.40;;;;;;;-4.27;100.00;101349.09;4972673;28;20035;-75
2023/03/02 01:16:38;;;;;;;133.88;56.55;;;;;;;-4.30;100.00;101350.59;4977644;28;20085;-75
2023/03/02 01:19:04;;;;;;;131.85;54.80;;;;;;;-4.33;100.00;101342.97;4977558;28;20031;-75
2023/03/02 01:21:29;;;;;;;127.45;54.95;;;;;;;-4.39;100.00;101329.69;4977666;28;20027;-75
2023/03/02 01:23:54;;;;;;;125.40;55.75;;;;;;;-4.35;100.00;101333.34;4976478;28;20027;-75
2023/03/02 01:26:20;;;;;;;126.63;56.45;;;;;;;-4.35;100.00;101325.78;4978135;28;20115;-76
2023/03/02 01:28:45;;;;;;;119.88;53.53;;;;;;;-4.25;100.00;101328.00;4976137;28;20029;-76
2023/03/02 01:31:11;;;;;;;130.38;55.50;;;;;;;-4.19;100.00;101331.31;4977602;28;20388;-76
2023/03/02 01:33:36;;;;;;;137.98;52.75;;;;;;;-4.18;100.00;101318.97;4977345;28;20117;-76
2023/03/02 01:36:02;;;;;;;130.95;55.83;;;;;;;-4.26;100.00;101304.06;4977366;28;20126;-75
2023/03/02 01:38:27;;;;;;;122.07;53.75;;;;;;;-4.26;100.00;101311.63;4976396;28;20058;-76
2023/03/02 01:40:53;;;;;;;129.48;54.38;;;;;;;-4.24;100.00;101323.22;4977775;28;20082;-76
2023/03/02 01:43:18;;;;;;;129.27;52.25;;;;;;;-4.26;100.00;101306.84;4977284;28;20475;-76
2023/03/02 01:45:52;;;;;;;126.63;56.30;;;;;;;-4.29;100.00;101302.00;4976515;28;20030;-76
2023/03/02 01:48:26;;;;;;;142.05;53.60;;;;;;;-4.50;100.00;101270.88;4977238;28;20042;-75
2023/03/02 01:50:52;;;;;;;123.18;55.28;;;;;;;-4.32;100.00;101299.16;4976321;28;20059;-74
2023/03/02 01:53:19;;;;;;;123.82;52.25;;;;;;;-4.29;100.00;101304.00;4976016;28;20114;-74
2023/03/02 01:55:45;;;;;;;133.27;54.42;;;;;;;-4.30;100.00;101294.81;4959784;28;20027;-76
2023/03/02 01:58:12;;;;;;;129.73;50.05;;;;;;;-4.31;100.00;101301.56;4976256;28;20050;-76
2023/03/02 02:00:38;;;;;;;131.65;51.40;;;;;;;-4.34;100.00;101293.94;4977376;28;20039;-76
2023/03/02 02:03:09;;;;;;;116.95;50.13;;;;;;;-4.30;100.00;101297.59;4976946;28;20041;-77
2023/03/02 02:06:07;;;;;;;131.50;53.83;;;;;;;-4.29;100.00;101298.41;4975927;28;20037;-76
2023/03/02 02:08:33;;;;;;;124.72;51.85;;;;;;;-4.32;100.00;101286.00;4975867;28;20039;-77
2023/03/02 02:10:58;;;;;;;116.15;52.20;;;;;;;-4.35;100.00;101294.28;4975417;28;20041;-75
2023/03/02 02:13:24;;;;;;;115.43;50.42;;;;;;;-4.35;100.00;101289.53;4973355;28;20035;-76
2023/03/02 02:15:49;;;;;;;138.20;53.28;;;;;;;-4.45;100.00;101275.38;4973358;28;20476;-76
2023/03/02 02:18:15;;;;;;;129.60;58.13;;;;;;;-4.40;100.00;101287.03;4974886;28;20039;-75
2023/03/02 02:20:44;;;;;;;129.68;54.78;;;;;;;-4.44;100.00;101285.34;4957452;28;20030;-75
2023/03/02 02:23:28;;;;;;;126.20;52.38;;;;;;;-4.47;100.00;101289.69;4973612;28;20110;-75
2023/03/02 02:26:02;;;;;;;135.23;54.80;;;;;;;-4.48;100.00;101290.06;4975189;28;20042;-75
2023/03/02 02:28:41;;;;;;;134.98;56.00;;;;;;;-4.56;100.00;101277.91;4974462;28;20026;-75
2023/03/02 02:31:09;;;;;;;134.70;56.67;;;;;;;-4.53;100.00;101291.16;4974379;28;20150;-76
2023/03/02 02:33:36;;;;;;;146.90;58.40;;;;;;;-4.53;100.00;101291.16;4974129;28;20445;-76
2023/03/02 02:36:06;;;;;;;149.48;60.55;;;;;;;-4.55;100.00;101290.69;4972546;28;20497;-76
2023/03/02 02:38:32;;;;;;;131.73;58.78;;;;;;;-4.61;100.00;101270.66;4974261;28;20034;-76
2023/03/02 02:41:00;;;;;;;143.82;58.40;;;;;;;-4.60;100.00;101277.03;4973363;28;20110;-75
2023/03/02 02:43:26;;;;;;;144.57;59.42;;;;;;;-4.66;100.00;101268.16;4972818;28;20022;-75
2023/03/02 02:45:54;;;;;;;140.45;59.78;;;;;;;-4.64;100.00;101270.59;4975032;28;20446;-75
2023/03/02 02:48:23;;;;;;;135.45;57.70;;;;;;;-4.69;100.00;101271.69;4975165;28;20027;-76
2023/03/02 02:50:49;;;;;;;147.40;62.90;;;;;;;-4.73;100.00;101268.03;4975800;28;20026;-77
2023/03/02 02:53:21;;;;;;;143.75;63.53;;;;;;;-4.74;100.00;101277.56;4959122;28;20457;-76
2023/03/02 02:55:52;;;;;;;166.35;65.53;;;;;;;-4.75;100.00;101275.13;4958937;28;20385;-75
2023/03/02 02:58:30;;;;;;;146.48;61.97;;;;;;;-4.77;100.00;101272.72;4958806;28;20081;-75
2023/03/02 03:00:55;;;;;;;137.65;60.85;;;;;;;-4.81;100.00;101262.66;4958726;28;20047;-75
2023/03/02 03:03:33;;;;;;;129.02;56.88;;;;;;;-4.83;100.00;101262.22;4974795;28;20467;-75
2023/03/02 03:06:04;;;;;;;142.40;57.45;;;;;;;-4.82;100.00;101263.84;4974505;28;20027;-75
2023/03/02 03:08:44;;;;;;;131.32;56.88;;;;;;;-4.83;100.00;101276.16;4976011;28;20027;-76
2023/03/02 03:11:18;;;;;;;139.50;58.10;;;;;;;-4.84;100.00;101271.75;4975962;28;20034;-76
2023/03/02 03:13:45;;;;;;;141.45;58.65;;;;;;;-4.86;100.00;101265.75;4975482;28;20027;-75
2023/03/02 03:16:13;;;;;;;135.85;58.38;;;;;;;-4.82;100.00;101267.44;4975586;28;20045;-75
2023/03/02 03:18:42;;;;;;;145.23;59.17;;;;;;;-4.81;100.00;101265.47;4976005;28;20023;-75
2023/03/02 03:21:07;;;;;;;133.75;58.67;;;;;;;-4.87;100.00;101262.16;4975721;28;20115;-74
2023/03/02 03:23:36;;;;;;;133.27;55.72;;;;;;;-4.87;100.00;101264.94;4974350;28;20420;-74
2023/03/02 03:26:05;;;;;;;139.70;54.03;;;;;;;-4.90;100.00;101276.78;4975388;28;20027;-75
2023/03/02 03:28:32;;;;;;;134.13;57.33;;;;;;;-4.89;100.00;101270.06;4974136;28;20035;-75
2023/03/02 03:30:57;;;;;;;149.98;59.90;;;;;;;-4.90;100.00;101264.81;4974446;28;20030;-75
2023/03/02 03:33:23;;;;;;;143.88;60.58;;;;;;;-4.90;100.00;101273.19;4975657;28;20042;-75
2023/03/02 03:35:48;;;;;;;138.63;60.03;;;;;;;-4.93;100.00;101271.13;4975029;28;20050;-75
2023/03/02 03:38:14;;;;;;;155.15;62.30;;;;;;;-4.94;100.00;101272.31;4975291;28;20030;-77
2023/03/02 03:40:39;;;;;;;148.75;61.67;;;;;;;-4.93;100.00;101271.13;4973963;28;20456;-75
2023/03/02 03:43:04;;;;;;;152.05;63.55;;;;;;;-4.95;100.00;101265.94;4975430;28;20034;-76
2023/03/02 03:45:30;;;;;;;151.00;64.38;;;;;;;-4.94;100.00;101267.53;4974199;28;20521;-76
2023/03/02 03:47:56;;;;;;;156.00;65.50;;;;;;;-4.96;100.00;101269.88;4975373;28;20026;-75
2023/03/02 03:50:22;;;;;;;144.07;64.50;;;;;;;-5.06;100.00;101256.53;4973863;28;20042;-76
2023/03/02 03:52:47;;;;;;;143.98;62.13;;;;;;;-4.97;100.00;101264.69;4973881;28;20433;-75
2023/03/02 03:55:13;;;;;;;154.75;64.63;;;;;;;-4.99;100.00;101265.03;4973654;28;20399;-76
2023/03/02 03:57:39;;;;;;;151.75;62.65;;;;;;;-4.99;100.00;101259.47;4974977;28;20031;-75
2023/03/02 04:00:09;;;;;;;145.30;62.20;;;;;;;-5.05;100.00;101256.16;4973773;28;20026;-75
2023/03/02 04:02:35;;;;;;;159.73;65.35;;;;;;;-5.03;100.00;101252.22;4975533;28;20026;-75
2023/03/02 04:05:05;;;;;;;148.40;64.32;;;;;;;-5.13;100.00;101239.66;4975029;28;20023;-76
2023/03/02 04:07:31;;;;;;;148.18;59.97;;;;;;;-5.02;100.00;101262.19;4973607;28;20026;-76
2023/03/02 04:10:02;;;;;;;151.50;59.60;;;;;;;-5.03;100.00;101261.38;4974887;28;20109;-75
2023/03/02 04:12:32;;;;;;;147.55;58.78;;;;;;;-5.03;100.00;101258.59;4975336;28;20027;-75
2023/03/02 04:14:58;;;;;;;145.68;60.80;;;;;;;-5.03;100.00;101263.34;4975906;28;20030;-75
2023/03/02 04:17:23;;;;;;;139.82;61.25;;;;;;;-5.05;100.00;101267.31;4974662;28;20031;-76
2023/03/02 04:19:49;;;;;;;162.88;69.40;;;;;;;-5.03;100.00;101261.38;4974983;28;20019;-74
2023/03/02 04:22:15;;;;;;;168.07;66.55;;;;;;;-5.03;100.00;101257.78;4974691;28;20055;-75
2023/03/02 04:24:40;;;;;;;164.35;66.15;;;;;;;-5.05;100.00;101256.16;4974433;28;20106;-75
2023/03/02 04:27:06;;;;;;;166.77;69.25;;;;;;;-5.06;100.00;101259.31;4973507;28;20054;-76
2023/03/02 04:29:32;;;;;;;173.38;69.57;;;;;;;-5.06;100.00;101257.31;4972934;28;20023;-76
2023/03/02 04:31:57;;;;;;;165.68;66.65;;;;;;;-5.05;100.00;101255.34;4973009;28;20029;-75
2023/03/02 04:34:24;;;;;;;194.02;74.00;;;;;;;-5.04;100.00;101259.75;4974564;28;20159;-75
2023/03/02 04:36:50;;;;;;;208.85;79.72;;;;;;;-5.04;100.00;101256.97;4974484;28;20019;-75
2023/03/02 04:39:17;;;;;;;236.27;82.30;;;;;;;-5.03;100.00;101249.41;4974348;28;20174;-77
2023/03/02 04:41:45;;;;;;;199.77;76.53;;;;;;;-5.05;100.00;101247.78;4974081;28;20033;-76
2023/03/02 04:44:14;;;;;;;189.38;76.03;;;;;;;-5.03;100.00;101249.41;4971057;28;20042;-77
2023/03/02 04:46:41;;;;;;;203.32;76.35;;;;;;;-5.06;100.00;101254.53;4974207;28;20054;-76
2023/03/02 04:49:08;;;;;;;201.23;76.95;;;;;;;-5.09;100.00;101244.13;4972908;28;20031;-77
2023/03/02 04:51:44;;;;;;;196.48;76.80;;;;;;;-5.08;100.00;101245.75;4971998;28;20039;-76
2023/03/02 04:54:20;;;;;;;189.95;76.38;;;;;;;-5.08;100.00;101236.59;4972819;28;20511;-77
2023/03/02 04:56:50;;;;;;;206.38;77.82;;;;;;;-5.10;100.00;101230.56;4973858;28;20038;-76
2023/03/02 04:59:26;;;;;;;189.60;73.20;;;;;;;-5.07;100.00;101241.00;4957632;28;20476;-76
2023/03/02 05:01:58;;;;;;;212.35;77.85;;;;;;;-5.10;100.00;101238.91;4956656;28;20394;-76
2023/03/02 05:04:24;;;;;;;185.40;76.47;;;;;;;-5.08;100.00;101242.97;4974293;28;20031;-76
2023/03/02 05:06:51;;;;;;;205.85;77.60;;;;;;;-5.16;100.00;101241.16;4972593;28;20023;-76
2023/03/02 05:09:18;;;;;;;204.10;82.07;;;;;;;-5.14;100.00;101238.03;4972922;28;20484;-76
2023/03/02 05:11:44;;;;;;;190.02;79.25;;;;;;;-5.13;100.00;101248.81;4972520;28;20030;-77
2023/03/02 05:14:12;;;;;;;198.02;79.63;;;;;;;-5.11;100.00;101260.38;4970498;28;20031;-76
2023/03/02 05:16:40;;;;;;;198.82;81.63;;;;;;;-5.10;100.00;101261.19;4972566;28;20070;-76
2023/03/02 05:19:15;;;;;;;203.77;80.97;;;;;;;-5.11;100.00;101256.81;4972838;28;20030;-77
2023/03/02 05:21:41;;;;;;;197.52;80.72;;;;;;;-5.20;100.00;101245.84;4956366;28;20065;-77
2023/03/02 05:24:06;;;;;;;198.23;85.40;;;;;;;-5.08;100.00;101264.44;4972660;28;20457;-77
2023/03/02 05:26:33;;;;;;;207.43;84.57;;;;;;;-5.06;100.00;101260.09;4972776;28;20026;-75
2023/03/02 05:28:59;;;;;;;209.95;87.45;;;;;;;-5.03;100.00;101257.78;4974027;28;20440;-77
2023/03/02 05:31:37;;;;;;;218.63;89.95;;;;;;;-5.00;100.00;101254.25;4972449;28;20425;-76
2023/03/02 05:34:06;;;;;;;211.05;87.72;;;;;;;-5.01;100.00;101247.91;4956541;28;20388;-75
2023/03/02 05:36:33;;;;;;;224.40;92.28;;;;;;;-4.99;100.00;101251.09;4974000;28;20039;-74
2023/03/02 05:38:59;;;;;;;228.35;93.68;;;;;;;-5.08;100.00;101231.81;4972657;28;20037;-75
2023/03/02 05:41:25;;;;;;;214.18;89.32;;;;;;;-4.98;100.00;101244.38;4972574;28;20166;-75
2023/03/02 05:43:53;;;;;;;204.07;84.13;;;;;;;-4.91;100.00;101246.53;4972348;28;20035;-78
2023/03/02 05:46:18;;;;;;;222.20;87.28;;;;;;;-4.97;100.00;101229.28;4971995;28;20038;-74
2023/03/02 05:48:44;;;;;;;223.88;90.35;;;;;;;-4.84;100.00;101243.88;4971366;28;20109;-74
2023/03/02 05:51:09;;;;;;;222.40;90.90;;;;;;;-4.82;100.00;101247.94;4972461;28;20088;-74
2023/03/02 05:53:35;;;;;;;226.27;90.07;;;;;;;-4.74;100.00;101254.44;4972833;28;20046;-75
2023/03/02 05:56:00;;;;;;;201.68;85.75;;;;;;;-4.68;100.00;101259.38;4972826;28;20031;-81
2023/03/02 05:58:26;;;;;;;213.80;87.82;;;;;;;-4.68;100.00;101241.84;4974079;28;20472;-88
2023/03/02 06:00:52;;;;;;;204.02;86.13;;;;;;;-4.56;100.00;101260.38;4957155;28;20112;-79
2023/03/02 06:03:18;;;;;;;208.18;86.60;;;;;;;-4.53;100.00;101237.38;4976080;28;20026;-83
2023/03/02 06:05:44;;;;;;;193.63;79.47;;;;;;;-3.99;100.00;101242.78;4976777;28;20026;-76
2023/03/02 06:08:10;;;;;;;183.10;79.65;;;;;;;-3.60;100.00;101247.09;4977822;28;20031;-78
2023/03/02 06:10:37;;;;;;;176.52;77.72;;;;;;;-3.45;100.00;101256.50;4977318;28;20027;-80
2023/03/02 06:13:04;;;;;;;179.02;76.85;;;;;;;-3.44;100.00;101266.50;4960424;28;20031;-81
2023/03/02 06:15:31;;;;;;;200.82;79.45;;;;;;;-3.57;100.00;101254.69;4977854;28;20045;-81
2023/03/02 06:17:58;;;;;;;180.82;77.47;;;;;;;-3.50;100.00;101263.22;4977631;28;20027;-79
2023/03/02 06:20:25;;;;;;;196.18;77.60;;;;;;;-3.48;100.00;101268.44;4977033;28;20058;-80
2023/03/02 06:22:51;;;;;;;202.70;80.65;;;;;;;-3.46;100.00;101268.84;4958930;28;20065;-80
2023/03/02 06:25:23;;;;;;;184.93;78.97;;;;;;;-3.41;100.00;101274.13;4943516;28;20480;-82
2023/03/02 06:27:50;;;;;;;196.57;83.85;;;;;;;-3.56;100.00;101238.75;4959694;28;20042;-75
2023/03/02 06:30:19;;;;;;;196.13;83.82;;;;;;;-3.44;100.00;101266.50;4976710;28;20034;-74
2023/03/02 06:32:47;;;;;;;203.25;87.72;;;;;;;-3.39;100.00;101250.25;4959368;28;20580;-74
2023/03/02 06:35:13;;;;;;;199.65;83.70;;;;;;;-3.12;100.00;101272.59;4955921;29;20047;-74
2023/03/02 06:37:39;;;;;;;199.50;86.38;;;;;;;-3.06;100.00;101262.69;4924286;29;20043;-75
2023/03/02 06:40:09;;;;;;;213.63;92.72;;;;;;;-2.95;100.00;101270.06;4957490;28;20070;-75
2023/03/02 06:42:34;;;;;;;214.65;94.30;;;;;;;-2.89;100.00;101274.13;4953629;29;20358;-77
2023/03/02 06:44:59;;;;;;;202.57;87.30;;;;;;;-2.81;100.00;101275.06;4953741;29;20473;-75
2023/03/02 06:47:25;;;;;;;207.60;88.35;;;;;;;-2.72;100.00;101280.38;4954843;29;20259;-77
2023/03/02 06:49:50;;;;;;;211.15;88.43;;;;;;;-2.62;100.00;101277.72;4954899;29;20019;-74
2023/03/02 06:52:16;;;;;;;216.68;94.88;;;;;;;-2.50;100.00;101282.28;4954631;29;20146;-77
2023/03/02 06:54:41;;;;;;;206.75;87.50;;;;;;;-2.38;100.00;101276.44;4953870;29;20034;-78
2023/03/02 06:57:07;;;;;;;210.73;87.55;;;;;;;-2.25;100.00;101280.59;4954604;28;20110;-76
2023/03/02 06:59:33;;;;;;;207.18;87.65;;;;;;;-2.10;100.00;101279.56;4954423;28;20091;-76
2023/03/02 07:01:58;;;;;;;211.00;86.50;;;;;;;-1.96;100.00;101283.72;4953113;29;20110;-76
2023/03/02 07:04:24;;;;;;;199.13;83.20;;;;;;;-1.81;100.00;101285.50;4955517;29;20582;-75
2023/03/02 07:06:49;;;;;;;192.02;83.28;;;;;;;-1.67;100.00;101280.03;4955447;29;20027;-76
2023/03/02 07:09:14;;;;;;;195.90;82.20;;;;;;;-1.54;100.00;101274.94;4956491;29;20031;-76
2023/03/02 07:11:40;;;;;;;200.63;85.03;;;;;;;-1.39;100.00;101277.47;4956345;29;20023;-76
2023/03/02 07:14:06;;;;;;;195.75;84.10;;;;;;;-1.44;100.00;101235.78;4955781;28;20381;-75
2023/03/02 07:16:32;;;;;;;178.45;78.30;;;;;;;-1.05;100.00;101272.53;4956864;29;20070;-75
2023/03/02 07:18:58;;;;;;;176.95;79.40;;;;;;;-0.91;100.00;101269.81;4955320;29;20027;-75
2023/03/02 07:21:23;;;;;;;183.25;77.28;;;;;;;-0.17;100.00;101282.63;4956647;29;20303;-76
2023/03/02 07:23:49;;;;;;;166.98;71.88;;;;;;;2.29;100.00;101263.03;4956380;28;20109;-76
2023/03/02 07:26:14;;;;;;;149.10;70.07;;;;;;;5.51;100.00;101249.56;4956441;28;20035;-75
2023/03/02 07:28:42;;;;;;;367.83;102.05;;;;;;;8.31;100.00;101257.53;4956171;29;20152;-77
2023/03/02 07:31:08;;;;;;;253.98;84.20;;;;;;;10.47;100.00;101250.66;4955050;29;20469;-78
2023/03/02 07:33:34;;;;;;;169.07;72.60;;;;;;;12.42;83.43;101267.88;4956247;28;20034;-77
2023/03/02 07:36:00;;;;;;;164.43;69.45;;;;;;;14.13;68.96;101275.13;4954809;29;20137;-77
2023/03/02 07:38:25;;;;;;;153.23;73.60;;;;;;;15.71;59.00;101279.97;4956251;28;20509;-76
2023/03/02 07:40:51;;;;;;;146.18;70.00;;;;;;;17.18;51.53;101276.66;4956353;28;20070;-75
2023/03/02 07:43:16;;;;;;;159.07;74.05;;;;;;;18.26;46.05;101249.22;4955710;29;20465;-74
2023/03/02 07:45:42;;;;;;;155.77;74.88;;;;;;;19.10;41.37;101274.00;4956007;28;20034;-77
2023/03/02 07:48:07;;;;;;;140.32;73.30;;;;;;;19.62;38.93;101263.84;4955930;28;20463;-76
2023/03/02 07:50:33;;;;;;;142.00;74.95;;;;;;;19.86;36.24;101261.88;4956066;29;20023;-76
2023/03/02 07:52:59;;;;;;;144.50;79.32;;;;;;;20.09;34.82;101264.72;4954832;29;20098;-77
2023/03/02 07:55:26;;;;;;;143.18;77.25;;;;;;;20.76;33.41;101268.72;4954688;29;20137;-81
2023/03/02 07:57:52;;;;;;;145.10;74.22;;;;;;;21.50;31.87;101255.03;4956349;28;20110;-82
2023/03/02 08:00:35;;;;;;;137.40;70.40;;;;;;;22.29;29.74;101261.41;4954815;29;20117;-83
2023/03/02 08:03:01;;;;;;;142.88;77.68;;;;;;;22.65;29.52;101248.09;4956798;28;20023;-83
2023/03/02 08:05:28;;;;;;;154.18;81.07;;;;;;;22.61;28.87;101241.81;4957187;28;20114;-87
2023/03/02 08:07:53;;;;;;;150.25;79.35;;;;;;;22.43;28.42;101248.47;4955210;29;20034;-83
2023/03/02 08:10:18;;;;;;;141.68;73.70;;;;;;;22.12;28.38;101208.44;4957631;28;20102;-82
2023/03/02 08:12:44;;;;;;;132.30;71.68;;;;;;;22.57;27.35;101237.66;4962724;29;20090;-81
2023/03/02 08:15:11;;;;;;;132.13;69.20;;;;;;;23.23;26.71;101238.59;4957177;28;20027;-80
2023/03/02 08:17:37;;;;;;;121.97;68.57;;;;;;;23.06;25.57;101217.72;4955755;28;20023;-81
2023/03/02 08:20:03;;;;;;;121.80;70.07;;;;;;;22.90;25.35;101234.97;4955825;28;20019;-80
2023/03/02 08:22:30;;;;;;;136.77;72.32;;;;;;;23.16;25.27;101227.59;4922819;29;20573;-82
2023/03/02 08:24:57;;;;;;;126.15;72.43;;;;;;;23.07;25.22;101222.19;4954039;28;20042;-80
2023/03/02 08:27:23;;;;;;;112.93;63.08;;;;;;;23.32;24.98;101217.72;4954699;29;20054;-80
2023/03/02 08:29:50;;;;;;;115.63;67.05;;;;;;;23.49;25.06;101209.41;4954686;29;20445;-79
2023/03/02 08:32:15;;;;;;;118.40;68.68;;;;;;;23.72;24.37;101230.19;4970371;28;20053;-80
2023/03/02 08:34:43;;;;;;;97.57;54.47;;;;;;;23.23;23.74;101218.97;4954139;29;20509;-80
2023/03/02 08:37:09;;;;;;;94.50;53.22;;;;;;;22.97;24.30;101238.56;4955523;28;20520;-80
2023/03/02 08:39:35;;;;;;;107.78;62.22;;;;;;;22.56;25.28;101233.16;4954288;29;20107;-80
2023/03/02 08:42:02;;;;;;;125.90;69.53;;;;;;;22.19;25.40;101231.09;4955452;28;20039;-81
2023/03/02 08:44:28;;;;;;;132.95;72.07;;;;;;;21.93;26.09;101235.41;4955475;28;20023;-81
2023/03/02 08:46:55;;;;;;;132.75;73.07;;;;;;;21.81;25.98;101234.00;4954968;28;20039;-80
2023/03/02 08:49:28;;;;;;;123.53;64.90;;;;;;;21.56;26.08;101232.47;4955263;28;20027;-79
2023/03/02 08:51:55;;;;;;;106.28;56.35;;;;;;;21.31;26.21;101230.91;4955496;28;20031;-78
2023/03/02 08:54:21;;;;;;;87.25;47.72;;;;;;;21.04;26.47;101224.84;4955599;28;20487;-79
2023/03/02 08:56:47;;;;;;;82.50;46.28;;;;;;;20.98;26.10;101221.22;4954168;29;20031;-78
2023/03/02 08:59:13;;;;;;;82.10;45.40;;;;;;;20.74;26.17;101216.16;4955629;28;20027;-80
2023/03/02 09:01:40;;;;;;;77.50;46.67;;;;;;;20.70;25.62;101218.59;4922633;29;20086;-81
2023/03/02 09:04:07;;;;;;;78.57;45.03;;;;;;;20.59;26.38;101227.38;4955281;28;20073;-79
2023/03/02 09:06:43;;;;;;;90.38;39.47;;;;;;;20.50;25.62;101212.44;4956341;28;20023;-86
2023/03/02 09:09:12;;;;;;;69.47;37.42;;;;;;;20.13;25.31;101205.03;4956082;28;20481;-90
2023/03/02 09:11:45;;;;;;;80.30;46.00;;;;;;;19.26;25.73;101132.50;4954131;29;20156;-88
2023/03/02 09:14:11;;;;;;;92.18;53.30;;;;;;;19.23;27.14;101203.91;4937882;29;20078;-88
2023/03/02 09:16:38;;;;;;;100.55;52.38;;;;;;;18.41;28.44;101206.38;4954043;29;20035;-88
2023/03/02 09:19:05;;;;;;;99.38;51.33;;;;;;;17.18;29.38;101213.91;4955189;28;20034;-83
2023/03/02 09:21:32;;;;;;;81.40;42.95;;;;;;;16.02;30.60;101197.25;4954285;29;20042;-85
2023/03/02 09:23:57;;;;;;;77.95;45.05;;;;;;;15.61;31.51;101208.06;4954380;29;20035;-85
2023/03/02 09:26:25;;;;;;;89.28;43.78;;;;;;;15.63;31.54;101217.00;4955231;28;20039;-86
2023/03/02 09:28:51;;;;;;;72.85;38.47;;;;;;;15.49;31.12;101212.09;4954561;29;20042;-86
2023/03/02 09:31:17;;;;;;;71.68;39.67;;;;;;;15.20;32.22;101215.13;4955294;28;20050;-85
2023/03/02 09:33:45;;;;;;;66.53;36.35;;;;;;;14.91;32.31;101203.72;4953688;29;20094;-86
2023/03/02 09:36:31;;;;;;;71.20;38.17;;;;;;;14.66;32.55;101222.44;4972912;28;20074;-87
2023/03/02 09:38:56;;;;;;;68.82;35.83;;;;;;;14.48;32.32;101219.78;4978157;28;20472;-86
2023/03/02 09:41:22;;;;;;;75.90;37.10;;;;;;;14.14;33.52;101218.41;4977550;28;20049;-86
2023/03/02 09:43:56;;;;;;;72.07;35.92;;;;;;;13.86;34.13;101218.69;4977788;28;20081;-86
2023/03/02 09:46:26;;;;;;;68.38;34.50;;;;;;;13.58;34.79;101205.88;4977887;28;20488;-84
2023/03/02 09:49:43;;;;;;;68.05;35.92;;;;;;;13.51;34.63;101220.59;4960568;28;20023;-86
2023/03/02 09:52:29;;;;;;;58.88;33.67;;;;;;;13.20;35.30;101214.41;4935216;28;20461;-79
2023/03/02 09:54:57;;;;;;;56.72;30.30;;;;;;;12.99;35.57;101214.25;4976842;28;20046;-79
2023/03/02 09:57:27;;;;;;;56.97;28.95;;;;;;;12.86;35.98;101222.28;4960092;28;20089;-80
2023/03/02 10:00:05;;;;;;;50.92;26.98;;;;;;;12.66;35.19;101222.88;4960564;28;20026;-84
2023/03/02 10:02:46;;;;;;;53.25;29.65;;;;;;;12.46;35.66;101214.03;4944615;28;20123;-78
2023/03/02 10:05:44;;;;;;;56.92;30.10;;;;;;;12.28;36.13;101208.34;4960053;28;20037;-76
2023/03/02 10:08:21;;;;;;;52.63;28.95;;;;;;;12.14;36.62;101220.50;4961620;28;20039;-75
2023/03/02 10:11:11;;;;;;;49.58;25.55;;;;;;;11.94;36.37;101200.97;4973901;28;20050;-75
2023/03/02 10:13:52;;;;;;;45.42;26.65;;;;;;;11.76;36.96;101224.69;4976927;28;20054;-78
2023/03/02 10:16:27;;;;;;;53.22;26.83;;;;;;;11.61;36.85;101232.38;4977091;28;20031;-77
2023/03/02 10:19:05;;;;;;;51.80;26.20;;;;;;;11.39;37.63;101214.53;4976964;28;20030;-78
2023/03/02 10:21:40;;;;;;;41.47;22.15;;;;;;;11.14;37.82;101215.63;4976947;28;20026;-75
2023/03/02 10:24:58;;;;;;;48.28;25.15;;;;;;;10.87;38.05;101219.22;4959631;28;20102;-78
2023/03/02 10:27:52;;;;;;;46.22;24.75;;;;;;;10.66;38.90;101220.09;4972640;28;20041;-77
2023/03/02 10:30:30;;;;;;;31.48;16.90;;;;;;;10.48;39.61;101200.81;4972981;28;20038;-77
2023/03/02 10:33:13;;;;;;;35.92;19.10;;;;;;;10.57;38.87;101220.06;4976642;28;20027;-77
2023/03/02 10:35:46;;;;;;;32.25;17.00;;;;;;;10.35;38.85;101202.19;4976185;28;20105;-77
2023/03/02 10:38:21;;;;;;;35.47;21.83;;;;;;;10.19;39.33;101205.28;4959858;28;20378;-78
2023/03/02 10:41:01;;;;;;;38.38;21.05;;;;;;;10.11;40.04;101208.44;4976815;28;20034;-81
2023/03/02 10:43:52;;;;;;;40.10;18.13;;;;;;;10.05;40.08;101198.88;4959337;28;20023;-76
2023/03/02 10:46:18;;;;;;;32.63;18.13;;;;;;;9.91;39.83;101199.44;4976701;28;20089;-79
2023/03/02 10:49:04;;;;;;;30.25;17.92;;;;;;;9.78;39.82;101186.50;4975213;28;20030;-79
2023/03/02 10:51:34;;;;;;;35.22;18.70;;;;;;;9.64;40.26;101194.28;4975701;28;20504;-76
2023/03/02 10:54:04;;;;;;;35.08;18.58;;;;;;;9.62;40.25;101196.03;4976164;28;20027;-77
2023/03/02 10:56:32;;;;;;;37.13;19.85;;;;;;;9.55;40.95;101191.38;4976019;28;20486;-77
2023/03/02 10:59:02;;;;;;;40.97;22.85;;;;;;;9.51;42.70;101173.59;4958699;28;20127;-77
2023/03/02 11:01:28;;;;;;;36.67;19.45;;;;;;;9.54;42.75;101183.31;4976147;28;20113;-77
2023/03/02 11:04:11;;;;;;;43.35;20.00;;;;;;;9.51;43.64;101181.34;4943262;28;20027;-77
2023/03/02 11:06:37;;;;;;;;;;;;;;;9.44;43.71;101188.13;4944905;28;20034;-78